This is the latest recevied weather packets stored in our database for station/object K3FEF-13. If no packets are shown the sender has not sent any weather packets the latest 10 day(s).
| Time | Temp. | Humidity | Pressure | Rain* | Wind** | Luminosity | Snow |
|---|---|---|---|---|---|---|---|
| 1777511117 | 9.44° C | 92% | 1011.9 hPa | 3.05 mm | - | - | - |
| 1777506317 | 11.67° C | 78% | 1011 hPa | 0 mm | - | - | - |
| 1777503916 | 12.78° C | 75% | 1011.1 hPa | 0 mm | - | - | - |
| 1777502116 | 13.89° C | 71% | 1011.5 hPa | 0 mm | - | - | - |
| 1777498536 | 13.89° C | 74% | 1012 hPa | 0 mm | - | - | - |
| 1777495536 | 15° C | 65% | 1012.9 hPa | 0 mm | - | - | - |
| 1777494916 | 15° C | 64% | 1013 hPa | 0 mm | - | - | - |
| 1777493716 | 15.56° C | 63% | 1013.3 hPa | 0 mm | - | - | - |
| 1777487116 | 15.56° C | 63% | 1014.9 hPa | 0 mm | - | - | - |
| 1777476317 | 12.78° C | 70% | 1016.4 hPa | 0 mm | - | - | - |
| 1777475717 | 12.78° C | 71% | 1016.6 hPa | 0 mm | - | - | - |
| 1777474517 | 12.78° C | 69% | 1016.6 hPa | 0 mm | - | - | - |
| 1777469717 | 12.22° C | 69% | 1016.8 hPa | 0 mm | - | - | - |
| 1777464317 | 10.56° C | 75% | 1017.7 hPa | 0 mm | - | - | - |
| 1777460737 | 9.44° C | 79% | 1018.1 hPa | 0 mm | - | - | - |
| 1777460117 | 9.44° C | 80% | 1018.1 hPa | 0 mm | - | - | - |
| 1777459517 | 9.44° C | 81% | 1018.2 hPa | 0 mm | - | - | - |
| 1777458917 | 8.89° C | 80% | 1017.9 hPa | 0 mm | - | - | - |
| 1777458317 | 8.89° C | 80% | 1017.9 hPa | 0 mm | - | - | - |
| 1777452917 | 10° C | 77% | 1018.5 hPa | 0 mm | - | - | - |
| 1777452316 | 10° C | 77% | 1018.5 hPa | 0 mm | - | - | - |
| 1777445716 | 10° C | 77% | 1018.7 hPa | 0 mm | - | - | - |
| 1777443916 | 10° C | 76% | 1019.1 hPa | 0 mm | - | - | - |
| 1777439116 | 11.11° C | 69% | 1020 hPa | 0 mm | - | - | - |
| 1777437316 | 11.11° C | 68% | 1020.2 hPa | 0 mm | - | - | - |
* Rain latest hour (hover to see other rain measurements)
** Current wind speed in m/s (hover to see current wind gust speed)